Angelina County Airport
KLFK : now visible

Airfield :











YOU CAN JOIN US ON...

 
LOGIN :

Register | Disclaimer

   EN    FR    IT 

 









Legend :    VFR   Marginal VFR   IFR   Intensive IFR   Very Intensive IFR
Visi :
Ceiling :
>= 8 km
>= 3000ft
5 to 8 km
1000 to 3000 ft
1500m to 5 km
500 to 1000 ft
800 to 1500m
200 to 500 ft
< 800m
< 200 ft
Symbols :   Thunderstorms  Fog  Heavy snow  Heavy precipitations  Wind > 20 kt






- Airport Elevation : 296 ft


KLFK - Angelina County

CURRENT METAR :
  • 071953Z AUTO 19008KT 10SM SCT025 BKN034 28/21 A2992 RMK AO2 SLP128 T02830211

EXPIRED METARs :
  • 071853Z AUTO 22009KT 10SM BKN035 28/22 A2996 RMK AO2 SLP141 T02780217
  • 071827Z AUTO 22007KT 10SM FEW015 SCT025 BKN031 27/22 A2997 RMK AO2 T02670222

TAF KLFK
Valid from the 07 at 18:00 until the 08 at 18:00 UTC


071741Z 0718/0818 21007KT P6SM BKN013 BKN018 OVC035
FM071900 22008KT P6SM BKN035 BKN140 OVC250
FM080000 19006KT P6SM SCT040 SCT140 BKN250
FM080200 18005KT P6SM OVC250
FM080500 19006KT P6SM OVC025
FM080900 21007KT P6SM OVC007
FM081500 23009KT P6SM OVC015



MET'MAP, your aeronautical weather chart ! - Copyright ORBIFLY December 2007 - Disclaimer

ORBIFLY MET'MAP TEAM :

Programming & Development : Alexandra Zaïnal
Concept & original design : Baudouin d'Aumeries
Assistance for programming : Marc-Olivier Méhu
Technical & hardware support : Manuel Goepfert

Contact : metmap@orbifly.com




SOURCES & CREDITS :

   NOAA       Earth
Advisory